sensor_id;sensor_type;location;lat;lon;timestamp;temperature;humidity
40253;DHT22;25972;51.854;4.534;2022-12-29T00:01:39;11.10;99.90
40253;DHT22;25972;51.854;4.534;2022-12-29T00:04:06;11.20;99.90
40253;DHT22;25972;51.854;4.534;2022-12-29T00:06:32;11.20;99.90
40253;DHT22;25972;51.854;4.534;2022-12-29T00:08:58;11.10;99.90
40253;DHT22;25972;51.854;4.534;2022-12-29T00:11:26;11.10;99.90
40253;DHT22;25972;51.854;4.534;2022-12-29T00:13:53;11.20;99.90
40253;DHT22;25972;51.854;4.534;2022-12-29T00:16:44;11.20;99.90
40253;DHT22;25972;51.854;4.534;2022-12-29T00:19:12;11.10;99.90
40253;DHT22;25972;51.854;4.534;2022-12-29T00:22:00;11.10;99.90
40253;DHT22;25972;51.854;4.534;2022-12-29T00:24:45;11.10;99.90
40253;DHT22;25972;51.854;4.534;2022-12-29T00:27:30;11.20;99.90
40253;DHT22;25972;51.854;4.534;2022-12-29T00:30:22;11.20;99.90
40253;DHT22;25972;51.854;4.534;2022-12-29T00:33:15;11.20;99.90
40253;DHT22;25972;51.854;4.534;2022-12-29T00:38:53;11.10;99.90
40253;DHT22;25972;51.854;4.534;2022-12-29T00:41:39;11.10;99.90
40253;DHT22;25972;51.854;4.534;2022-12-29T00:44:24;11.20;99.90
40253;DHT22;25972;51.854;4.534;2022-12-29T00:46:52;11.10;99.90
40253;DHT22;25972;51.854;4.534;2022-12-29T00:49:18;11.00;99.90
40253;DHT22;25972;51.854;4.534;2022-12-29T00:52:05;10.90;99.90
40253;DHT22;25972;51.854;4.534;2022-12-29T00:54:34;10.80;99.90
40253;DHT22;25972;51.854;4.534;2022-12-29T00:57:01;10.80;99.90
40253;DHT22;25972;51.854;4.534;2022-12-29T00:59:28;10.70;99.90
40253;DHT22;25972;51.854;4.534;2022-12-29T01:01:57;10.60;99.90
40253;DHT22;25972;51.854;4.534;2022-12-29T01:04:25;10.60;99.90
40253;DHT22;25972;51.854;4.534;2022-12-29T01:06:51;10.60;99.90
40253;DHT22;25972;51.854;4.534;2022-12-29T01:09:18;10.50;99.90
40253;DHT22;25972;51.854;4.534;2022-12-29T01:12:04;10.50;99.90
40253;DHT22;25972;51.854;4.534;2022-12-29T01:14:30;10.50;99.90
40253;DHT22;25972;51.854;4.534;2022-12-29T01:16:57;10.50;99.90
40253;DHT22;25972;51.854;4.534;2022-12-29T01:19:24;10.50;99.90
40253;DHT22;25972;51.854;4.534;2022-12-29T01:21:50;10.50;99.90
40253;DHT22;25972;51.854;4.534;2022-12-29T01:24:19;10.60;99.90
40253;DHT22;25972;51.854;4.534;2022-12-29T01:26:46;10.70;99.90
40253;DHT22;25972;51.854;4.534;2022-12-29T01:29:12;10.80;99.90
40253;DHT22;25972;51.854;4.534;2022-12-29T01:31:38;10.60;99.90
40253;DHT22;25972;51.854;4.534;2022-12-29T01:34:06;10.60;99.90
40253;DHT22;25972;51.854;4.534;2022-12-29T01:36:32;10.70;99.90
40253;DHT22;25972;51.854;4.534;2022-12-29T01:38:58;10.70;99.90
40253;DHT22;25972;51.854;4.534;2022-12-29T01:41:25;10.70;99.90
40253;DHT22;25972;51.854;4.534;2022-12-29T01:43:56;10.60;99.90
40253;DHT22;25972;51.854;4.534;2022-12-29T01:46:36;10.60;99.90
40253;DHT22;25972;51.854;4.534;2022-12-29T01:49:32;10.50;99.90
40253;DHT22;25972;51.854;4.534;2022-12-29T01:52:00;10.50;99.90
40253;DHT22;25972;51.854;4.534;2022-12-29T01:57:08;10.40;99.90
40253;DHT22;25972;51.854;4.534;2022-12-29T01:59:46;10.40;99.90
40253;DHT22;25972;51.854;4.534;2022-12-29T02:02:13;10.40;99.90
40253;DHT22;25972;51.854;4.534;2022-12-29T02:04:41;10.40;99.90
40253;DHT22;25972;51.854;4.534;2022-12-29T02:07:16;10.30;99.90
40253;DHT22;25972;51.854;4.534;2022-12-29T02:09:45;10.30;99.90
40253;DHT22;25972;51.854;4.534;2022-12-29T02:12:12;10.40;99.90
40253;DHT22;25972;51.854;4.534;2022-12-29T02:14:38;10.40;99.90
40253;DHT22;25972;51.854;4.534;2022-12-29T02:17:33;10.40;99.90
40253;DHT22;25972;51.854;4.534;2022-12-29T02:23:24;10.40;99.90
40253;DHT22;25972;51.854;4.534;2022-12-29T02:34:41;10.40;99.90
40253;DHT22;25972;51.854;4.534;2022-12-29T02:45:58;10.10;99.90
40253;DHT22;25972;51.854;4.534;2022-12-29T02:51:27;10.20;99.90
40253;DHT22;25972;51.854;4.534;2022-12-29T02:53:58;10.30;99.90
40253;DHT22;25972;51.854;4.534;2022-12-29T02:56:42;10.30;99.90
40253;DHT22;25972;51.854;4.534;2022-12-29T02:59:12;10.20;99.90
40253;DHT22;25972;51.854;4.534;2022-12-29T03:02:03;10.30;99.90
40253;DHT22;25972;51.854;4.534;2022-12-29T03:07:25;10.20;99.90
40253;DHT22;25972;51.854;4.534;2022-12-29T03:10:18;10.20;99.90
40253;DHT22;25972;51.854;4.534;2022-12-29T03:13:01;10.20;99.90
40253;DHT22;25972;51.854;4.534;2022-12-29T03:18:46;10.00;99.90
40253;DHT22;25972;51.854;4.534;2022-12-29T03:21:31;10.00;99.90
40253;DHT22;25972;51.854;4.534;2022-12-29T03:24:19;9.90;99.90
40253;DHT22;25972;51.854;4.534;2022-12-29T03:26:48;9.80;99.90
40253;DHT22;25972;51.854;4.534;2022-12-29T03:29:17;9.80;99.90
40253;DHT22;25972;51.854;4.534;2022-12-29T03:31:48;9.90;99.90
40253;DHT22;25972;51.854;4.534;2022-12-29T03:34:16;9.80;99.90
40253;DHT22;25972;51.854;4.534;2022-12-29T03:36:48;9.90;99.90
40253;DHT22;25972;51.854;4.534;2022-12-29T03:39:17;9.80;99.90
40253;DHT22;25972;51.854;4.534;2022-12-29T03:41:45;9.90;99.90
40253;DHT22;25972;51.854;4.534;2022-12-29T03:44:13;9.90;99.90
40253;DHT22;25972;51.854;4.534;2022-12-29T03:46:39;10.00;99.90
40253;DHT22;25972;51.854;4.534;2022-12-29T03:49:05;10.00;99.90
40253;DHT22;25972;51.854;4.534;2022-12-29T03:51:31;10.10;99.90
40253;DHT22;25972;51.854;4.534;2022-12-29T03:53:57;10.10;99.90
40253;DHT22;25972;51.854;4.534;2022-12-29T03:56:23;10.20;99.90
40253;DHT22;25972;51.854;4.534;2022-12-29T03:58:49;10.20;99.90
40253;DHT22;25972;51.854;4.534;2022-12-29T04:01:30;10.20;99.90
40253;DHT22;25972;51.854;4.534;2022-12-29T04:03:56;10.20;99.90
40253;DHT22;25972;51.854;4.534;2022-12-29T04:06:23;10.20;99.90
40253;DHT22;25972;51.854;4.534;2022-12-29T04:08:56;10.10;99.90
40253;DHT22;25972;51.854;4.534;2022-12-29T04:11:24;10.00;99.90
40253;DHT22;25972;51.854;4.534;2022-12-29T04:13:50;9.80;99.90
40253;DHT22;25972;51.854;4.534;2022-12-29T04:16:20;9.70;99.90
40253;DHT22;25972;51.854;4.534;2022-12-29T04:18:46;9.60;99.90
40253;DHT22;25972;51.854;4.534;2022-12-29T04:21:12;9.50;99.90
40253;DHT22;25972;51.854;4.534;2022-12-29T04:23:40;9.50;99.90
40253;DHT22;25972;51.854;4.534;2022-12-29T04:26:08;9.40;99.90
40253;DHT22;25972;51.854;4.534;2022-12-29T04:28:41;9.40;99.90
40253;DHT22;25972;51.854;4.534;2022-12-29T04:31:22;9.30;99.90
40253;DHT22;25972;51.854;4.534;2022-12-29T04:33:49;9.20;99.90
40253;DHT22;25972;51.854;4.534;2022-12-29T04:36:15;9.20;99.90
40253;DHT22;25972;51.854;4.534;2022-12-29T04:38:42;9.20;99.90
40253;DHT22;25972;51.854;4.534;2022-12-29T04:41:09;9.30;99.90
40253;DHT22;25972;51.854;4.534;2022-12-29T04:43:37;9.30;99.90
40253;DHT22;25972;51.854;4.534;2022-12-29T04:46:06;9.30;99.90
40253;DHT22;25972;51.854;4.534;2022-12-29T04:48:51;9.40;99.90
40253;DHT22;25972;51.854;4.534;2022-12-29T04:51:43;9.50;99.90
40253;DHT22;25972;51.854;4.534;2022-12-29T04:54:11;9.50;99.90
40253;DHT22;25972;51.854;4.534;2022-12-29T04:56:37;9.60;99.90
40253;DHT22;25972;51.854;4.534;2022-12-29T04:59:03;9.50;99.90
40253;DHT22;25972;51.854;4.534;2022-12-29T05:01:30;9.50;99.90
40253;DHT22;25972;51.854;4.534;2022-12-29T05:03:59;9.50;99.90
40253;DHT22;25972;51.854;4.534;2022-12-29T05:06:25;9.50;99.90
40253;DHT22;25972;51.854;4.534;2022-12-29T05:08:50;9.60;99.90
40253;DHT22;25972;51.854;4.534;2022-12-29T05:11:16;9.60;99.90
40253;DHT22;25972;51.854;4.534;2022-12-29T05:13:47;9.60;99.90
40253;DHT22;25972;51.854;4.534;2022-12-29T05:16:14;9.60;99.90
40253;DHT22;25972;51.854;4.534;2022-12-29T05:18:40;9.70;99.90
40253;DHT22;25972;51.854;4.534;2022-12-29T05:21:07;9.70;99.90
40253;DHT22;25972;51.854;4.534;2022-12-29T05:23:34;9.70;99.90
40253;DHT22;25972;51.854;4.534;2022-12-29T05:26:04;9.70;99.90
40253;DHT22;25972;51.854;4.534;2022-12-29T05:28:46;9.70;99.90
40253;DHT22;25972;51.854;4.534;2022-12-29T05:31:16;9.80;99.90
40253;DHT22;25972;51.854;4.534;2022-12-29T05:33:42;9.70;99.90
40253;DHT22;25972;51.854;4.534;2022-12-29T05:36:09;9.80;99.90
40253;DHT22;25972;51.854;4.534;2022-12-29T05:38:37;9.80;99.90
40253;DHT22;25972;51.854;4.534;2022-12-29T05:41:06;9.80;99.90
40253;DHT22;25972;51.854;4.534;2022-12-29T05:43:51;9.70;99.90
40253;DHT22;25972;51.854;4.534;2022-12-29T05:46:37;9.80;99.90
40253;DHT22;25972;51.854;4.534;2022-12-29T05:49:09;9.70;99.90
40253;DHT22;25972;51.854;4.534;2022-12-29T05:51:53;9.80;99.90
40253;DHT22;25972;51.854;4.534;2022-12-29T05:54:22;9.80;99.90
40253;DHT22;25972;51.854;4.534;2022-12-29T05:56:49;9.80;99.90
40253;DHT22;25972;51.854;4.534;2022-12-29T05:59:15;9.70;99.90
40253;DHT22;25972;51.854;4.534;2022-12-29T06:01:42;9.70;99.90
40253;DHT22;25972;51.854;4.534;2022-12-29T06:04:08;9.60;99.90
40253;DHT22;25972;51.854;4.534;2022-12-29T06:06:34;9.60;99.90
40253;DHT22;25972;51.854;4.534;2022-12-29T06:09:02;9.50;99.90
40253;DHT22;25972;51.854;4.534;2022-12-29T06:11:28;9.50;99.90
40253;DHT22;25972;51.854;4.534;2022-12-29T06:14:02;9.60;99.90
40253;DHT22;25972;51.854;4.534;2022-12-29T06:16:28;9.60;99.90
40253;DHT22;25972;51.854;4.534;2022-12-29T06:18:57;9.60;99.90
40253;DHT22;25972;51.854;4.534;2022-12-29T06:21:26;9.50;99.90
40253;DHT22;25972;51.854;4.534;2022-12-29T06:23:53;9.50;99.90
40253;DHT22;25972;51.854;4.534;2022-12-29T06:26:19;9.40;99.90
40253;DHT22;25972;51.854;4.534;2022-12-29T06:28:49;9.40;99.90
40253;DHT22;25972;51.854;4.534;2022-12-29T06:31:15;9.30;99.90
40253;DHT22;25972;51.854;4.534;2022-12-29T06:33:41;9.20;99.90
40253;DHT22;25972;51.854;4.534;2022-12-29T06:36:07;9.10;99.90
40253;DHT22;25972;51.854;4.534;2022-12-29T06:38:33;9.00;99.90
40253;DHT22;25972;51.854;4.534;2022-12-29T06:41:01;8.90;99.90
40253;DHT22;25972;51.854;4.534;2022-12-29T06:43:50;8.90;99.90
40253;DHT22;25972;51.854;4.534;2022-12-29T06:46:22;8.80;99.90
40253;DHT22;25972;51.854;4.534;2022-12-29T06:48:48;8.70;99.90
40253;DHT22;25972;51.854;4.534;2022-12-29T06:51:14;8.70;99.90
40253;DHT22;25972;51.854;4.534;2022-12-29T06:53:40;8.60;99.90
40253;DHT22;25972;51.854;4.534;2022-12-29T06:56:06;8.60;99.90
40253;DHT22;25972;51.854;4.534;2022-12-29T06:58:32;8.60;99.90
40253;DHT22;25972;51.854;4.534;2022-12-29T07:00:58;8.60;99.90
40253;DHT22;25972;51.854;4.534;2022-12-29T07:03:23;8.70;99.90
40253;DHT22;25972;51.854;4.534;2022-12-29T07:05:49;8.70;99.90
40253;DHT22;25972;51.854;4.534;2022-12-29T07:08:15;8.70;99.90
40253;DHT22;25972;51.854;4.534;2022-12-29T07:10:41;8.70;99.90
40253;DHT22;25972;51.854;4.534;2022-12-29T07:13:07;8.80;99.90
40253;DHT22;25972;51.854;4.534;2022-12-29T07:15:34;8.70;99.90
40253;DHT22;25972;51.854;4.534;2022-12-29T07:18:00;8.70;99.90
40253;DHT22;25972;51.854;4.534;2022-12-29T07:20:26;8.80;99.90
40253;DHT22;25972;51.854;4.534;2022-12-29T07:22:51;8.80;99.90
40253;DHT22;25972;51.854;4.534;2022-12-29T07:25:17;8.80;99.90
40253;DHT22;25972;51.854;4.534;2022-12-29T07:27:43;8.90;99.90
40253;DHT22;25972;51.854;4.534;2022-12-29T07:30:09;8.90;99.90
40253;DHT22;25972;51.854;4.534;2022-12-29T07:32:35;8.90;99.90
40253;DHT22;25972;51.854;4.534;2022-12-29T07:35:01;8.90;99.90
40253;DHT22;25972;51.854;4.534;2022-12-29T07:37:27;8.90;99.90
40253;DHT22;25972;51.854;4.534;2022-12-29T07:39:53;9.00;99.90
40253;DHT22;25972;51.854;4.534;2022-12-29T07:42:19;9.00;99.90
40253;DHT22;25972;51.854;4.534;2022-12-29T07:44:50;9.10;99.90
40253;DHT22;25972;51.854;4.534;2022-12-29T07:47:21;9.20;99.90
40253;DHT22;25972;51.854;4.534;2022-12-29T07:49:47;9.20;99.90
40253;DHT22;25972;51.854;4.534;2022-12-29T07:52:13;9.20;99.90
40253;DHT22;25972;51.854;4.534;2022-12-29T07:54:39;9.30;99.90
40253;DHT22;25972;51.854;4.534;2022-12-29T07:57:06;9.30;99.90
40253;DHT22;25972;51.854;4.534;2022-12-29T07:59:32;9.30;99.90
40253;DHT22;25972;51.854;4.534;2022-12-29T08:01:58;9.30;99.90
40253;DHT22;25972;51.854;4.534;2022-12-29T08:04:23;9.40;99.90
40253;DHT22;25972;51.854;4.534;2022-12-29T08:06:49;9.50;99.90
40253;DHT22;25972;51.854;4.534;2022-12-29T08:09:15;9.50;99.90
40253;DHT22;25972;51.854;4.534;2022-12-29T08:11:41;9.50;99.90
40253;DHT22;25972;51.854;4.534;2022-12-29T08:14:08;9.50;99.90
40253;DHT22;25972;51.854;4.534;2022-12-29T08:16:34;9.50;99.90
40253;DHT22;25972;51.854;4.534;2022-12-29T08:19:01;9.50;99.90
40253;DHT22;25972;51.854;4.534;2022-12-29T08:21:33;9.50;99.90
40253;DHT22;25972;51.854;4.534;2022-12-29T08:23:59;9.40;99.90
40253;DHT22;25972;51.854;4.534;2022-12-29T08:26:25;9.40;99.90
40253;DHT22;25972;51.854;4.534;2022-12-29T08:28:54;9.40;99.90
40253;DHT22;25972;51.854;4.534;2022-12-29T08:31:21;9.40;99.90
40253;DHT22;25972;51.854;4.534;2022-12-29T08:33:48;9.40;99.90
40253;DHT22;25972;51.854;4.534;2022-12-29T08:36:14;9.30;99.90
40253;DHT22;25972;51.854;4.534;2022-12-29T08:38:39;9.30;99.90
40253;DHT22;25972;51.854;4.534;2022-12-29T08:41:05;9.30;99.90
40253;DHT22;25972;51.854;4.534;2022-12-29T08:43:31;9.20;99.90
40253;DHT22;25972;51.854;4.534;2022-12-29T08:45:58;9.20;99.90
40253;DHT22;25972;51.854;4.534;2022-12-29T08:48:24;9.10;99.90
40253;DHT22;25972;51.854;4.534;2022-12-29T08:50:50;9.10;99.90
40253;DHT22;25972;51.854;4.534;2022-12-29T08:53:17;9.10;99.90
40253;DHT22;25972;51.854;4.534;2022-12-29T08:55:45;9.00;99.90
40253;DHT22;25972;51.854;4.534;2022-12-29T08:58:12;8.90;99.90
40253;DHT22;25972;51.854;4.534;2022-12-29T09:00:41;9.00;99.90
40253;DHT22;25972;51.854;4.534;2022-12-29T09:03:08;8.90;99.90
40253;DHT22;25972;51.854;4.534;2022-12-29T09:05:34;8.90;99.90
40253;DHT22;25972;51.854;4.534;2022-12-29T09:07:59;8.80;99.90
40253;DHT22;25972;51.854;4.534;2022-12-29T09:10:25;8.80;99.90
40253;DHT22;25972;51.854;4.534;2022-12-29T09:12:51;8.80;99.90
40253;DHT22;25972;51.854;4.534;2022-12-29T09:15:17;8.80;99.90
40253;DHT22;25972;51.854;4.534;2022-12-29T09:17:43;8.80;99.90
40253;DHT22;25972;51.854;4.534;2022-12-29T09:20:13;8.90;99.90
40253;DHT22;25972;51.854;4.534;2022-12-29T09:22:40;8.90;99.90
40253;DHT22;25972;51.854;4.534;2022-12-29T09:25:06;8.80;99.90
40253;DHT22;25972;51.854;4.534;2022-12-29T09:27:32;8.90;99.90
40253;DHT22;25972;51.854;4.534;2022-12-29T09:29:59;8.90;99.90
40253;DHT22;25972;51.854;4.534;2022-12-29T09:32:25;8.90;99.90
40253;DHT22;25972;51.854;4.534;2022-12-29T09:34:51;8.90;99.90
40253;DHT22;25972;51.854;4.534;2022-12-29T09:37:17;9.00;99.90
40253;DHT22;25972;51.854;4.534;2022-12-29T09:39:43;9.00;99.90
40253;DHT22;25972;51.854;4.534;2022-12-29T09:42:16;9.00;99.90
40253;DHT22;25972;51.854;4.534;2022-12-29T09:45:18;9.00;99.90
40253;DHT22;25972;51.854;4.534;2022-12-29T09:47:46;9.00;99.90
40253;DHT22;25972;51.854;4.534;2022-12-29T09:55:35;9.10;99.90
40253;DHT22;25972;51.854;4.534;2022-12-29T09:58:04;9.10;99.90
40253;DHT22;25972;51.854;4.534;2022-12-29T10:00:49;9.10;99.90
40253;DHT22;25972;51.854;4.534;2022-12-29T10:03:18;9.10;99.90
40253;DHT22;25972;51.854;4.534;2022-12-29T10:06:04;9.10;99.90
40253;DHT22;25972;51.854;4.534;2022-12-29T10:08:50;9.10;99.90
40253;DHT22;25972;51.854;4.534;2022-12-29T10:25:46;9.30;99.90
40253;DHT22;25972;51.854;4.534;2022-12-29T10:28:24;9.20;99.90
40253;DHT22;25972;51.854;4.534;2022-12-29T10:30:56;9.30;99.90
40253;DHT22;25972;51.854;4.534;2022-12-29T10:33:32;9.30;99.90
40253;DHT22;25972;51.854;4.534;2022-12-29T10:36:27;9.30;99.90
40253;DHT22;25972;51.854;4.534;2022-12-29T10:38:58;9.30;99.90
40253;DHT22;25972;51.854;4.534;2022-12-29T10:41:32;9.20;99.90
40253;DHT22;25972;51.854;4.534;2022-12-29T10:44:00;9.20;99.90
40253;DHT22;25972;51.854;4.534;2022-12-29T10:46:33;9.20;99.90
40253;DHT22;25972;51.854;4.534;2022-12-29T10:49:00;9.10;99.90
40253;DHT22;25972;51.854;4.534;2022-12-29T10:51:34;9.00;99.90
40253;DHT22;25972;51.854;4.534;2022-12-29T10:54:21;8.80;99.90
40253;DHT22;25972;51.854;4.534;2022-12-29T10:56:54;8.90;99.90
40253;DHT22;25972;51.854;4.534;2022-12-29T10:59:24;8.90;99.90
40253;DHT22;25972;51.854;4.534;2022-12-29T11:01:53;9.10;99.90
40253;DHT22;25972;51.854;4.534;2022-12-29T11:04:46;9.10;99.90
40253;DHT22;25972;51.854;4.534;2022-12-29T11:07:16;9.20;99.90
40253;DHT22;25972;51.854;4.534;2022-12-29T11:09:43;9.30;99.90
40253;DHT22;25972;51.854;4.534;2022-12-29T11:12:28;9.40;99.90
40253;DHT22;25972;51.854;4.534;2022-12-29T11:15:14;9.40;99.90
40253;DHT22;25972;51.854;4.534;2022-12-29T11:17:49;9.50;99.90
40253;DHT22;25972;51.854;4.534;2022-12-29T11:20:37;9.60;99.90
40253;DHT22;25972;51.854;4.534;2022-12-29T11:23:15;9.60;99.90
40253;DHT22;25972;51.854;4.534;2022-12-29T11:25:46;9.60;99.90
40253;DHT22;25972;51.854;4.534;2022-12-29T11:28:16;9.60;99.90
40253;DHT22;25972;51.854;4.534;2022-12-29T11:30:42;9.60;99.90
40253;DHT22;25972;51.854;4.534;2022-12-29T11:33:09;9.60;99.90
40253;DHT22;25972;51.854;4.534;2022-12-29T11:35:43;9.60;99.90
40253;DHT22;25972;51.854;4.534;2022-12-29T11:38:22;9.70;99.90
40253;DHT22;25972;51.854;4.534;2022-12-29T11:40:50;9.70;99.90
40253;DHT22;25972;51.854;4.534;2022-12-29T11:43:43;9.70;99.90
40253;DHT22;25972;51.854;4.534;2022-12-29T11:46:30;9.70;99.90
40253;DHT22;25972;51.854;4.534;2022-12-29T11:48:58;9.70;99.90
40253;DHT22;25972;51.854;4.534;2022-12-29T11:51:46;9.80;99.90
40253;DHT22;25972;51.854;4.534;2022-12-29T11:54:32;9.80;99.90
40253;DHT22;25972;51.854;4.534;2022-12-29T11:57:11;9.90;99.90
40253;DHT22;25972;51.854;4.534;2022-12-29T11:59:41;10.00;99.90
40253;DHT22;25972;51.854;4.534;2022-12-29T12:04:48;10.10;99.90
40253;DHT22;25972;51.854;4.534;2022-12-29T12:07:19;10.10;99.90
40253;DHT22;25972;51.854;4.534;2022-12-29T12:10:01;10.10;99.90
40253;DHT22;25972;51.854;4.534;2022-12-29T12:12:47;10.00;99.90
40253;DHT22;25972;51.854;4.534;2022-12-29T12:15:40;10.00;99.90
40253;DHT22;25972;51.854;4.534;2022-12-29T12:18:08;9.90;99.90
40253;DHT22;25972;51.854;4.534;2022-12-29T12:20:49;9.90;99.90
40253;DHT22;25972;51.854;4.534;2022-12-29T12:23:40;9.90;99.90
40253;DHT22;25972;51.854;4.534;2022-12-29T12:26:11;9.90;99.90
40253;DHT22;25972;51.854;4.534;2022-12-29T12:28:46;9.80;99.90
40253;DHT22;25972;51.854;4.534;2022-12-29T12:31:45;9.80;99.90
40253;DHT22;25972;51.854;4.534;2022-12-29T12:42:58;9.90;99.90
40253;DHT22;25972;51.854;4.534;2022-12-29T12:50:59;10.00;99.90
40253;DHT22;25972;51.854;4.534;2022-12-29T13:02:22;10.00;99.90
40253;DHT22;25972;51.854;4.534;2022-12-29T13:07:47;9.90;99.90
40253;DHT22;25972;51.854;4.534;2022-12-29T13:10:38;9.90;99.90
40253;DHT22;25972;51.854;4.534;2022-12-29T13:23:53;9.60;99.90
40253;DHT22;25972;51.854;4.534;2022-12-29T13:26:32;9.40;99.90
40253;DHT22;25972;51.854;4.534;2022-12-29T13:31:56;9.10;99.90
40253;DHT22;25972;51.854;4.534;2022-12-29T13:34:37;9.10;99.90
40253;DHT22;25972;51.854;4.534;2022-12-29T13:37:15;9.00;99.90
40253;DHT22;25972;51.854;4.534;2022-12-29T13:39:47;8.90;99.90
40253;DHT22;25972;51.854;4.534;2022-12-29T13:42:21;8.80;99.90
40253;DHT22;25972;51.854;4.534;2022-12-29T13:45:01;8.90;99.90
40253;DHT22;25972;51.854;4.534;2022-12-29T13:47:38;8.80;99.90
40253;DHT22;25972;51.854;4.534;2022-12-29T13:50:14;8.80;99.90
40253;DHT22;25972;51.854;4.534;2022-12-29T13:55:53;8.90;99.90
40253;DHT22;25972;51.854;4.534;2022-12-29T14:03:50;9.00;99.90
40253;DHT22;25972;51.854;4.534;2022-12-29T14:06:19;8.90;99.90
40253;DHT22;25972;51.854;4.534;2022-12-29T14:08:46;9.00;99.90
40253;DHT22;25972;51.854;4.534;2022-12-29T14:11:15;9.00;99.90
40253;DHT22;25972;51.854;4.534;2022-12-29T14:13:44;9.10;99.90
40253;DHT22;25972;51.854;4.534;2022-12-29T14:16:34;9.10;99.90
40253;DHT22;25972;51.854;4.534;2022-12-29T14:21:36;9.10;99.90
40253;DHT22;25972;51.854;4.534;2022-12-29T14:24:43;9.10;99.90
40253;DHT22;25972;51.854;4.534;2022-12-29T14:34:58;9.10;99.90
40253;DHT22;25972;51.854;4.534;2022-12-29T14:37:34;9.10;99.90
40253;DHT22;25972;51.854;4.534;2022-12-29T14:42:30;9.10;99.90
40253;DHT22;25972;51.854;4.534;2022-12-29T14:45:05;9.00;99.90
40253;DHT22;25972;51.854;4.534;2022-12-29T14:47:39;9.10;99.90
40253;DHT22;25972;51.854;4.534;2022-12-29T14:53:05;9.00;99.90
40253;DHT22;25972;51.854;4.534;2022-12-29T14:55:43;9.00;99.90
40253;DHT22;25972;51.854;4.534;2022-12-29T15:00:44;9.10;99.90
40253;DHT22;25972;51.854;4.534;2022-12-29T15:03:24;9.00;99.90
40253;DHT22;25972;51.854;4.534;2022-12-29T15:06:07;9.00;99.90
40253;DHT22;25972;51.854;4.534;2022-12-29T15:08:51;9.00;99.90
40253;DHT22;25972;51.854;4.534;2022-12-29T15:11:44;9.00;99.90
40253;DHT22;25972;51.854;4.534;2022-12-29T15:14:39;9.00;99.90
40253;DHT22;25972;51.854;4.534;2022-12-29T15:17:39;9.00;99.90
40253;DHT22;25972;51.854;4.534;2022-12-29T15:20:21;9.00;99.90
40253;DHT22;25972;51.854;4.534;2022-12-29T15:23:11;9.00;99.90
40253;DHT22;25972;51.854;4.534;2022-12-29T15:25:46;9.00;99.90
40253;DHT22;25972;51.854;4.534;2022-12-29T15:28:13;9.00;99.90
40253;DHT22;25972;51.854;4.534;2022-12-29T15:30:54;8.90;99.90
40253;DHT22;25972;51.854;4.534;2022-12-29T15:33:26;8.90;99.90
40253;DHT22;25972;51.854;4.534;2022-12-29T15:35:54;8.90;99.90
40253;DHT22;25972;51.854;4.534;2022-12-29T15:38:26;8.80;99.90
40253;DHT22;25972;51.854;4.534;2022-12-29T15:40:56;8.70;99.90
40253;DHT22;25972;51.854;4.534;2022-12-29T15:43:26;8.70;99.90
40253;DHT22;25972;51.854;4.534;2022-12-29T15:45:55;8.70;99.90
40253;DHT22;25972;51.854;4.534;2022-12-29T15:48:23;8.70;99.90
40253;DHT22;25972;51.854;4.534;2022-12-29T15:50:50;8.60;99.90
40253;DHT22;25972;51.854;4.534;2022-12-29T15:53:26;8.50;99.90
40253;DHT22;25972;51.854;4.534;2022-12-29T15:55:58;8.50;99.90
40253;DHT22;25972;51.854;4.534;2022-12-29T15:58:28;8.40;99.90
40253;DHT22;25972;51.854;4.534;2022-12-29T16:00:59;8.40;99.90
40253;DHT22;25972;51.854;4.534;2022-12-29T16:03:29;8.40;99.90
40253;DHT22;25972;51.854;4.534;2022-12-29T16:06:08;8.30;99.90
40253;DHT22;25972;51.854;4.534;2022-12-29T16:08:39;8.20;99.90
40253;DHT22;25972;51.854;4.534;2022-12-29T16:11:23;8.20;99.90
40253;DHT22;25972;51.854;4.534;2022-12-29T16:13:49;8.20;99.90
40253;DHT22;25972;51.854;4.534;2022-12-29T16:16:21;8.20;99.90
40253;DHT22;25972;51.854;4.534;2022-12-29T16:18:50;8.10;99.90
40253;DHT22;25972;51.854;4.534;2022-12-29T16:21:36;8.10;99.90
40253;DHT22;25972;51.854;4.534;2022-12-29T16:24:07;8.10;99.90
40253;DHT22;25972;51.854;4.534;2022-12-29T16:26:33;8.10;99.90
40253;DHT22;25972;51.854;4.534;2022-12-29T16:29:01;8.10;99.90
40253;DHT22;25972;51.854;4.534;2022-12-29T16:34:30;8.00;99.90
40253;DHT22;25972;51.854;4.534;2022-12-29T16:37:04;8.00;99.90
40253;DHT22;25972;51.854;4.534;2022-12-29T16:39:31;8.00;99.90
40253;DHT22;25972;51.854;4.534;2022-12-29T16:41:58;8.00;99.90
40253;DHT22;25972;51.854;4.534;2022-12-29T16:44:27;8.00;99.90
40253;DHT22;25972;51.854;4.534;2022-12-29T16:49:32;7.90;99.90
40253;DHT22;25972;51.854;4.534;2022-12-29T16:51:58;8.00;99.90
40253;DHT22;25972;51.854;4.534;2022-12-29T16:54:37;8.00;99.90
40253;DHT22;25972;51.854;4.534;2022-12-29T16:57:04;7.90;99.90
40253;DHT22;25972;51.854;4.534;2022-12-29T16:59:35;7.90;99.90
40253;DHT22;25972;51.854;4.534;2022-12-29T17:02:23;7.90;99.90
40253;DHT22;25972;51.854;4.534;2022-12-29T17:04:52;7.90;99.90
40253;DHT22;25972;51.854;4.534;2022-12-29T17:07:23;7.90;99.90
40253;DHT22;25972;51.854;4.534;2022-12-29T17:09:49;7.80;99.90
40253;DHT22;25972;51.854;4.534;2022-12-29T17:12:36;7.70;99.90
40253;DHT22;25972;51.854;4.534;2022-12-29T17:15:24;7.70;99.90
40253;DHT22;25972;51.854;4.534;2022-12-29T17:17:53;7.70;99.90
40253;DHT22;25972;51.854;4.534;2022-12-29T17:20:25;7.60;99.90
40253;DHT22;25972;51.854;4.534;2022-12-29T17:22:52;7.70;99.90
40253;DHT22;25972;51.854;4.534;2022-12-29T17:25:26;7.70;99.90
40253;DHT22;25972;51.854;4.534;2022-12-29T17:30:42;7.60;99.90
40253;DHT22;25972;51.854;4.534;2022-12-29T17:33:14;7.60;99.90
40253;DHT22;25972;51.854;4.534;2022-12-29T17:35:40;7.60;99.90
40253;DHT22;25972;51.854;4.534;2022-12-29T17:40:44;7.60;99.90
40253;DHT22;25972;51.854;4.534;2022-12-29T17:43:13;7.60;99.90
40253;DHT22;25972;51.854;4.534;2022-12-29T17:45:43;7.50;99.90
40253;DHT22;25972;51.854;4.534;2022-12-29T17:48:14;7.50;99.90
40253;DHT22;25972;51.854;4.534;2022-12-29T17:50:41;7.50;99.90
40253;DHT22;25972;51.854;4.534;2022-12-29T17:53:13;7.50;99.90
40253;DHT22;25972;51.854;4.534;2022-12-29T17:55:40;7.40;99.90
40253;DHT22;25972;51.854;4.534;2022-12-29T18:00:43;7.50;99.90
40253;DHT22;25972;51.854;4.534;2022-12-29T18:03:15;7.40;99.90
40253;DHT22;25972;51.854;4.534;2022-12-29T18:05:41;7.40;99.90
40253;DHT22;25972;51.854;4.534;2022-12-29T18:08:09;7.40;99.90
40253;DHT22;25972;51.854;4.534;2022-12-29T18:10:35;7.30;99.90
40253;DHT22;25972;51.854;4.534;2022-12-29T18:13:01;7.40;99.90
40253;DHT22;25972;51.854;4.534;2022-12-29T18:15:31;7.30;99.90
40253;DHT22;25972;51.854;4.534;2022-12-29T18:18:14;7.40;99.90
40253;DHT22;25972;51.854;4.534;2022-12-29T18:20:41;7.30;99.90
40253;DHT22;25972;51.854;4.534;2022-12-29T18:23:33;7.30;99.90
40253;DHT22;25972;51.854;4.534;2022-12-29T18:26:17;7.30;99.90
40253;DHT22;25972;51.854;4.534;2022-12-29T18:28:44;7.40;99.90
40253;DHT22;25972;51.854;4.534;2022-12-29T18:31:21;7.40;99.90